Bloomington, Wisconsin
Current Conditions -  °F | °C
As of 9:15 PM on Monday 26 Jan 2015 (Local Time) from KPDC Reporting Station
Haze Haze  
Wind Chill: 29°   Ceiling: 2400
Heat Index: 29°   Visibility: 5mi
Dew Point: 26°   Wind: 0mph
Humidity: 87%   Direction: NA
Pressure: 29.89"   Gusts: NA
Location:  42.89°N, 90.92°W
Report Text: KPDC 270315Z AUTO 00000KT 5SM BR OVC024 M02/M03 A2989 RMK AO2 T10161035
Loading
Personal Weather Stations






























Interactive Weather Map New forecast layout! Learn more

10-Day Weather Forecast

Advertisements
Track Severe Weather on mobile